TimeEST,TemperatureF,Dew PointF,Humidity,Sea Level PressureIn,VisibilityMPH,Wind Direction,Wind SpeedMPH,Gust SpeedMPH,PrecipitationIn,Events,Conditions,WindDirDegrees,DateUTC
12:15 AM,48.2,48.2,100,29.56,0.2,Calm,Calm,-,N/A,Fog,Fog,0,2012-12-18 05:15:00
12:35 AM,48.2,48.2,100,29.57,1.0,SW,3.5,-,N/A,,Overcast,220,2012-12-18 05:35:00
12:55 AM,48.2,48.2,100,29.57,1.2,SW,4.6,-,N/A,,Overcast,220,2012-12-18 05:55:00
1:15 AM,48.2,48.2,100,29.57,0.2,SSW,5.8,-,N/A,Fog,Fog,210,2012-12-18 06:15:00
1:35 AM,50.0,50.0,100,29.57,0.5,SW,6.9,-,N/A,Fog,Fog,220,2012-12-18 06:35:00
1:55 AM,50.0,50.0,100,29.57,0.8,SW,5.8,-,N/A,,Overcast,230,2012-12-18 06:55:00
2:15 AM,50.0,50.0,100,29.58,0.5,SW,5.8,-,N/A,Fog,Fog,220,2012-12-18 07:15:00
2:35 AM,50.0,50.0,100,29.58,0.5,WSW,6.9,-,N/A,Fog,Fog,240,2012-12-18 07:35:00
2:55 AM,50.0,50.0,100,29.58,0.5,WSW,5.8,-,N/A,Fog,Fog,240,2012-12-18 07:55:00
3:15 AM,50.0,50.0,100,29.57,0.2,WSW,4.6,-,N/A,Fog,Fog,240,2012-12-18 08:15:00
3:35 AM,48.2,48.2,100,29.57,0.5,SW,5.8,-,N/A,Fog,Fog,220,2012-12-18 08:35:00
3:55 AM,48.2,48.2,100,29.57,0.8,SW,4.6,-,N/A,,Overcast,220,2012-12-18 08:55:00
4:15 AM,48.2,48.2,100,29.57,0.8,SW,4.6,-,N/A,,Overcast,230,2012-12-18 09:15:00
4:35 AM,48.2,48.2,100,29.58,0.2,SSW,3.5,-,N/A,Fog,Fog,210,2012-12-18 09:35:00
4:55 AM,48.2,48.2,100,29.57,-9999.0,SW,4.6,-,N/A,,Unknown,220,2012-12-18 09:55:00
5:15 AM,48.2,48.2,100,29.57,0.5,Calm,Calm,-,N/A,Fog,Fog,0,2012-12-18 10:15:00
5:35 AM,48.2,48.2,100,29.58,0.5,South,3.5,-,N/A,Fog,Fog,190,2012-12-18 10:35:00
5:55 AM,46.4,46.4,100,29.57,0.5,Calm,Calm,-,N/A,Fog,Fog,0,2012-12-18 10:55:00
6:15 AM,46.4,46.4,100,29.57,0.2,SSW,4.6,-,N/A,Fog,Fog,210,2012-12-18 11:15:00
6:35 AM,46.4,46.4,100,29.59,0.2,SW,3.5,-,N/A,Fog,Fog,220,2012-12-18 11:35:00
6:55 AM,44.6,44.6,100,29.59,0.2,Calm,Calm,-,N/A,Fog,Fog,0,2012-12-18 11:55:00
7:15 AM,44.6,44.6,100,29.59,0.5,Calm,Calm,-,N/A,Fog,Fog,0,2012-12-18 12:15:00
7:35 AM,42.8,42.8,100,29.59,0.2,Calm,Calm,-,N/A,Fog,Fog,0,2012-12-18 12:35:00
7:55 AM,41.0,41.0,100,29.60,0.5,SW,3.5,-,N/A,Fog,Fog,220,2012-12-18 12:55:00
8:15 AM,44.6,44.6,100,29.61,7.0,Calm,Calm,-,N/A,,Clear,0,2012-12-18 13:15:00
8:35 AM,46.4,46.4,100,29.62,10.0,WSW,3.5,-,N/A,,Clear,240,2012-12-18 13:35:00
8:55 AM,48.2,48.2,100,29.62,10.0,WSW,5.8,-,N/A,,Clear,240,2012-12-18 13:55:00
9:15 AM,50.0,50.0,100,29.62,10.0,SW,8.1,-,N/A,,Clear,230,2012-12-18 14:15:00
9:35 AM,51.8,51.8,100,29.62,10.0,WSW,9.2,-,N/A,,Clear,240,2012-12-18 14:35:00
9:55 AM,55.4,48.2,77,29.63,10.0,WSW,9.2,-,N/A,,Clear,240,2012-12-18 14:55:00
10:15 AM,57.2,48.2,72,29.63,10.0,WSW,6.9,-,N/A,,Scattered Clouds,240,2012-12-18 15:15:00
10:35 AM,57.2,46.4,67,29.64,10.0,West,8.1,-,N/A,,Clear,260,2012-12-18 15:35:00
10:55 AM,59.0,44.6,59,29.64,10.0,WNW,10.4,-,N/A,,Scattered Clouds,290,2012-12-18 15:55:00
11:15 AM,57.2,42.8,59,29.63,10.0,WNW,5.8,-,N/A,,Scattered Clouds,290,2012-12-18 16:15:00
11:35 AM,59.0,41.0,51,29.63,10.0,WNW,12.7,19.6,N/A,,Scattered Clouds,290,2012-12-18 16:35:00
11:55 AM,57.2,39.2,51,29.63,10.0,West,15.0,19.6,N/A,,Clear,280,2012-12-18 16:55:00
12:15 PM,60.8,41.0,48,29.62,10.0,West,11.5,17.3,N/A,,Scattered Clouds,280,2012-12-18 17:15:00
12:35 PM,60.8,39.2,45,29.62,10.0,West,17.3,20.7,N/A,,Scattered Clouds,270,2012-12-18 17:35:00
12:55 PM,60.8,41.0,48,29.62,10.0,West,10.4,20.7,N/A,,Mostly Cloudy,270,2012-12-18 17:55:00
1:15 PM,57.2,37.4,48,29.63,10.0,WNW,10.4,-,N/A,,Overcast,290,2012-12-18 18:15:00
1:35 PM,57.2,35.6,44,29.64,10.0,NW,10.4,16.1,N/A,,Overcast,310,2012-12-18 18:35:00
1:55 PM,57.2,35.6,44,29.64,10.0,NW,8.1,18.4,N/A,,Overcast,320,2012-12-18 18:55:00
2:15 PM,57.2,35.6,44,29.65,10.0,NW,11.5,17.3,N/A,,Overcast,310,2012-12-18 19:15:00
2:35 PM,57.2,35.6,44,29.66,10.0,WNW,11.5,21.9,N/A,,Overcast,300,2012-12-18 19:35:00
2:55 PM,55.4,35.6,47,29.66,10.0,WNW,11.5,18.4,N/A,,Mostly Cloudy,300,2012-12-18 19:55:00
3:15 PM,55.4,35.6,47,29.68,10.0,West,12.7,18.4,N/A,,Overcast,280,2012-12-18 20:15:00
3:35 PM,55.4,33.8,44,29.69,10.0,WNW,13.8,20.7,N/A,,Overcast,300,2012-12-18 20:35:00
3:55 PM,55.4,33.8,44,29.70,10.0,WNW,9.2,19.6,N/A,,Overcast,290,2012-12-18 20:55:00
4:15 PM,55.4,33.8,44,29.70,10.0,WNW,9.2,-,N/A,,Overcast,290,2012-12-18 21:15:00
4:35 PM,53.6,33.8,47,29.71,10.0,WNW,6.9,-,N/A,,Mostly Cloudy,300,2012-12-18 21:35:00
4:55 PM,53.6,33.8,47,29.72,10.0,Calm,Calm,-,N/A,,Mostly Cloudy,0,2012-12-18 21:55:00
5:15 PM,53.6,33.8,47,29.73,10.0,WNW,6.9,-,N/A,,Overcast,300,2012-12-18 22:15:00
5:35 PM,51.8,33.8,50,29.74,10.0,NW,5.8,-,N/A,,Overcast,310,2012-12-18 22:35:00
5:55 PM,50.0,33.8,54,29.75,10.0,WNW,4.6,-,N/A,,Scattered Clouds,300,2012-12-18 22:55:00
6:15 PM,48.2,33.8,58,29.76,10.0,WNW,4.6,-,N/A,,Clear,300,2012-12-18 23:15:00
6:35 PM,48.2,33.8,58,29.76,10.0,WNW,8.1,-,N/A,,Clear,290,2012-12-18 23:35:00
6:55 PM,48.2,33.8,58,29.77,10.0,Calm,Calm,-,N/A,,Clear,0,2012-12-18 23:55:00
7:15 PM,48.2,33.8,58,29.78,10.0,WNW,5.8,-,N/A,,Clear,300,2012-12-19 00:15:00
7:35 PM,48.2,32.0,54,29.79,10.0,West,8.1,-,N/A,,Clear,280,2012-12-19 00:35:00
7:55 PM,46.4,32.0,57,29.79,10.0,West,4.6,-,N/A,,Clear,270,2012-12-19 00:55:00
8:15 PM,46.4,32.0,57,29.80,10.0,Calm,Calm,-,N/A,,Clear,0,2012-12-19 01:15:00
8:35 PM,44.6,32.0,61,29.81,10.0,West,5.8,-,N/A,,Clear,260,2012-12-19 01:35:00
8:55 PM,44.6,32.0,61,29.81,10.0,WNW,5.8,-,N/A,,Clear,290,2012-12-19 01:55:00
9:15 PM,44.6,32.0,61,29.81,10.0,West,3.5,-,N/A,,Clear,260,2012-12-19 02:15:00
9:35 PM,37.4,32.0,81,29.81,10.0,Calm,Calm,-,N/A,,Clear,0,2012-12-19 02:35:00
9:55 PM,37.4,30.2,75,29.81,10.0,Calm,Calm,-,N/A,,Clear,0,2012-12-19 02:55:00
10:15 PM,37.4,32.0,81,29.82,10.0,Calm,Calm,-,N/A,,Clear,0,2012-12-19 03:15:00
10:35 PM,35.6,33.8,93,29.82,10.0,Calm,Calm,-,N/A,,Clear,0,2012-12-19 03:35:00
10:55 PM,35.6,30.2,81,29.81,10.0,Calm,Calm,-,N/A,,Clear,0,2012-12-19 03:55:00
11:15 PM,35.6,33.8,93,29.82,10.0,Calm,Calm,-,N/A,,Clear,0,2012-12-19 04:15:00
11:35 PM,35.6,30.2,81,29.82,10.0,Calm,Calm,-,N/A,,Clear,0,2012-12-19 04:35:00
11:55 PM,33.8,30.2,87,29.83,10.0,Calm,Calm,-,N/A,,Clear,0,2012-12-19 04:55:00